Time;durP1;ratioP1;P1;durP2;ratioP2;P2;SDS_P1;SDS_P2;PMS_P1;PMS_P2;Temp;Humidity;BMP_temperature;BMP_pressure;BME280_temperature;BME280_humidity;BME280_pressure;Samples;Min_cycle;Max_cycle;Signal;HPM_P1;HPM_P2
2021/12/18 00:00:39;;;;;;;40.05;16.15;;;;;;;9.37;100.00;103639.63;5047942;28;20424;-75
2021/12/18 00:03:06;;;;;;;40.88;17.83;;;;;;;9.33;100.00;103633.94;5031041;28;20049;-75
2021/12/18 00:05:33;;;;;;;35.92;15.15;;;;;;;9.34;100.00;103632.81;5031963;28;20058;-75
2021/12/18 00:08:00;;;;;;;44.17;18.58;;;;;;;9.31;100.00;103627.91;5029884;28;20048;-76
2021/12/18 00:10:29;;;;;;;41.35;16.60;;;;;;;9.30;100.00;103631.81;5035234;28;20149;-75
2021/12/18 00:12:55;;;;;;;41.42;18.48;;;;;;;9.31;100.00;103627.91;5030204;28;20057;-75
2021/12/18 00:15:24;;;;;;;40.75;17.17;;;;;;;9.31;100.00;103635.38;5030397;28;20062;-75
2021/12/18 00:17:50;;;;;;;34.42;14.68;;;;;;;9.30;100.00;103631.81;5035498;28;20053;-75
2021/12/18 00:20:17;;;;;;;35.90;15.85;;;;;;;9.23;100.00;103614.06;5028707;28;20063;-76
2021/12/18 00:22:45;;;;;;;31.90;13.52;;;;;;;9.28;100.00;103616.69;5030460;28;20513;-77
2021/12/18 00:25:12;;;;;;;32.20;13.02;;;;;;;9.28;100.00;103623.03;5031178;28;20064;-75
2021/12/18 00:27:39;;;;;;;38.78;16.63;;;;;;;9.31;100.00;103627.09;5047030;28;20498;-76
2021/12/18 00:30:08;;;;;;;30.73;13.68;;;;;;;9.30;100.00;103615.25;5030578;28;20156;-76
2021/12/18 00:32:35;;;;;;;22.73;8.65;;;;;;;9.31;100.00;103616.03;5036819;28;20557;-75
2021/12/18 00:35:02;;;;;;;23.85;9.85;;;;;;;9.30;100.00;103611.66;5032388;28;20103;-76
2021/12/18 00:37:29;;;;;;;20.67;8.27;;;;;;;9.30;100.00;103609.72;5037127;28;20155;-76
2021/12/18 00:39:58;;;;;;;24.77;9.80;;;;;;;9.29;100.00;103613.63;5030352;28;20144;-76
2021/12/18 00:45:07;;;;;;;28.42;10.15;;;;;;;9.30;100.00;103615.25;5030644;28;20136;-75
2021/12/18 00:47:33;;;;;;;20.38;7.82;;;;;;;9.29;100.00;103616.38;5030324;28;20122;-75
2021/12/18 00:50:00;;;;;;;20.25;7.22;;;;;;;9.27;100.00;103613.09;5030882;28;20134;-76
2021/12/18 00:52:27;;;;;;;20.90;7.40;;;;;;;9.28;100.00;103611.97;5027161;28;20103;-75
2021/12/18 00:54:54;;;;;;;23.35;8.38;;;;;;;9.30;100.00;103625.47;5030415;28;20171;-76
2021/12/18 00:57:21;;;;;;;21.27;7.75;;;;;;;9.27;100.00;103618.63;5030384;28;20053;-75
2021/12/18 00:59:50;;;;;;;28.42;10.30;;;;;;;9.30;100.00;103625.47;5030400;28;20389;-76
2021/12/18 01:02:16;;;;;;;22.92;7.60;;;;;;;9.31;100.00;103630.69;5025476;28;20042;-75
2021/12/18 01:04:43;;;;;;;21.13;8.15;;;;;;;9.28;100.00;103625.00;5029138;28;20065;-76
2021/12/18 01:07:10;;;;;;;22.58;7.95;;;;;;;9.27;100.00;103632.44;5041131;28;20493;-77
2021/12/18 01:09:59;;;;;;;21.58;8.30;;;;;;;9.21;100.00;103633.72;5045776;28;20151;-75
2021/12/18 01:12:32;;;;;;;23.90;8.88;;;;;;;9.27;100.00;103642.69;5029787;28;20088;-75
2021/12/18 01:22:48;;;;;;;24.60;9.32;;;;;;;9.24;100.00;103630.31;5047322;28;20056;-74
2021/12/18 01:25:20;;;;;;;23.65;8.73;;;;;;;9.27;100.00;103639.91;5043609;28;20059;-75
2021/12/18 01:27:47;;;;;;;23.45;8.73;;;;;;;9.26;100.00;103635.53;5016304;28;20081;-75
2021/12/18 01:30:15;;;;;;;26.92;9.13;;;;;;;9.28;100.00;103633.28;5030825;28;20046;-76
2021/12/18 01:32:42;;;;;;;22.27;8.98;;;;;;;9.28;100.00;103636.03;5041112;28;20056;-75
2021/12/18 01:35:09;;;;;;;21.70;9.07;;;;;;;9.20;100.00;103634.88;5036070;28;20472;-75
2021/12/18 01:37:37;;;;;;;22.85;8.77;;;;;;;9.19;100.00;103635.19;5040298;28;20136;-75
2021/12/18 01:40:04;;;;;;;28.58;10.02;;;;;;;9.19;100.00;103635.19;5030835;28;20049;-75
2021/12/18 01:52:53;;;;;;;26.90;9.25;;;;;;;9.00;100.00;103634.56;5048293;28;20647;-75
2021/12/18 01:55:25;;;;;;;25.55;9.20;;;;;;;9.04;100.00;103636.41;5048185;28;20132;-77
2021/12/18 01:57:52;;;;;;;23.95;9.57;;;;;;;9.00;100.00;103629.88;5049400;28;20052;-76
2021/12/18 02:00:34;;;;;;;25.65;9.50;;;;;;;9.01;100.00;103634.25;5040298;28;20060;-75
2021/12/18 02:03:01;;;;;;;28.38;9.80;;;;;;;9.03;100.00;103637.53;5026368;28;20128;-75
2021/12/18 02:05:27;;;;;;;28.42;10.40;;;;;;;9.00;100.00;103627.13;5049078;28;20053;-74
2021/12/18 02:07:54;;;;;;;26.85;11.38;;;;;;;9.04;100.00;103632.84;5031449;28;20485;-76
2021/12/18 02:10:24;;;;;;;34.88;10.13;;;;;;;9.00;100.00;103621.59;5030095;28;20041;-76
2021/12/18 02:13:00;;;;;;;24.52;8.60;;;;;;;8.99;100.00;103619.16;5047383;28;20053;-75
2021/12/18 02:21:06;;;;;;;26.45;8.70;;;;;;;8.82;100.00;103597.78;5030641;28;20053;-74
2021/12/18 02:23:36;;;;;;;26.60;10.43;;;;;;;8.84;100.00;103584.47;5029586;28;20129;-75
2021/12/18 02:26:03;;;;;;;26.88;9.40;;;;;;;8.87;100.00;103586.59;5043975;28;20056;-76
2021/12/18 02:28:29;;;;;;;29.05;9.60;;;;;;;8.88;100.00;103585.44;5035170;28;20128;-76
2021/12/18 02:30:57;;;;;;;29.38;9.90;;;;;;;8.91;100.00;103578.50;5017688;28;20093;-76
2021/12/18 02:33:26;;;;;;;24.70;9.05;;;;;;;8.84;100.00;103580.91;5030312;28;20049;-76
2021/12/18 02:35:55;;;;;;;33.78;11.55;;;;;;;8.82;100.00;103580.38;5037654;28;20689;-76
2021/12/18 02:38:30;;;;;;;34.55;10.65;;;;;;;8.81;100.00;103576.00;5034947;28;20107;-75
2021/12/18 02:43:37;;;;;;;31.88;10.90;;;;;;;8.85;100.00;103583.34;5029619;28;20084;-75
2021/12/18 02:46:08;;;;;;;27.17;9.93;;;;;;;8.89;100.00;103580.75;5040191;28;20091;-75
2021/12/18 02:48:38;;;;;;;28.90;10.57;;;;;;;8.93;100.00;103584.50;5032267;28;20735;-76
2021/12/18 02:51:07;;;;;;;30.58;11.57;;;;;;;8.98;100.00;103587.16;5035359;28;20103;-75
2021/12/18 02:53:35;;;;;;;33.58;11.23;;;;;;;8.99;100.00;103589.59;5047657;28;20135;-75
2021/12/18 02:56:05;;;;;;;31.25;12.38;;;;;;;9.02;100.00;103586.19;5037783;28;20525;-75
2021/12/18 02:58:36;;;;;;;28.42;10.88;;;;;;;9.04;100.00;103591.41;5037636;28;20136;-75
2021/12/18 03:01:06;;;;;;;30.75;11.52;;;;;;;9.05;100.00;103588.28;5028829;28;20136;-75
2021/12/18 03:03:36;;;;;;;30.60;10.65;;;;;;;9.02;100.00;103582.59;5041253;28;20045;-75
2021/12/18 03:08:44;;;;;;;28.95;11.43;;;;;;;9.03;100.00;103585.06;4994811;28;1112060;-75
2021/12/18 03:25:16;;;;;;;31.30;11.43;;;;;;;9.05;100.00;103582.78;5041204;28;20061;-76
2021/12/18 03:27:43;;;;;;;33.55;11.90;;;;;;;9.05;100.00;103580.00;5037871;28;20071;-77
2021/12/18 03:30:10;;;;;;;34.53;11.82;;;;;;;9.08;100.00;103578.59;5037074;28;20053;-75
2021/12/18 03:32:37;;;;;;;33.17;12.48;;;;;;;9.05;100.00;103574.50;5030136;28;20053;-76
2021/12/18 03:35:05;;;;;;;30.77;10.88;;;;;;;9.07;100.00;103575.00;5030963;28;20083;-75
2021/12/18 03:37:34;;;;;;;37.38;12.88;;;;;;;9.06;100.00;103573.38;5045261;28;20045;-75
2021/12/18 03:40:02;;;;;;;34.15;11.88;;;;;;;9.06;100.00;103570.63;5050425;28;20567;-76
2021/12/18 03:42:28;;;;;;;34.95;12.65;;;;;;;9.06;100.00;103565.09;5037718;28;20131;-75
2021/12/18 03:44:55;;;;;;;32.55;11.95;;;;;;;9.09;100.00;103566.38;5034125;28;20406;-75
2021/12/18 03:47:22;;;;;;;29.75;11.45;;;;;;;9.07;100.00;103558.41;5050869;28;20141;-75
2021/12/18 03:49:48;;;;;;;31.25;12.68;;;;;;;9.08;100.00;103565.56;5045023;28;20136;-75
2021/12/18 03:52:14;;;;;;;31.25;11.60;;;;;;;9.09;100.00;103564.44;5035928;28;20156;-76
2021/12/18 03:54:41;;;;;;;33.88;12.00;;;;;;;9.08;100.00;103562.81;5048807;28;20581;-76
2021/12/18 03:57:08;;;;;;;31.00;11.20;;;;;;;9.10;100.00;103560.56;5037393;28;20140;-76
2021/12/18 03:59:34;;;;;;;31.40;11.07;;;;;;;9.02;100.00;103564.09;5030559;28;20145;-75
2021/12/18 04:02:01;;;;;;;33.47;12.30;;;;;;;9.00;100.00;103563.59;5040713;28;20099;-75
2021/12/18 04:04:28;;;;;;;36.88;12.98;;;;;;;8.93;100.00;103557.72;5033485;28;20096;-76
2021/12/18 04:06:55;;;;;;;36.17;13.10;;;;;;;8.99;100.00;103573.03;5029463;28;20833;-75
2021/12/18 04:09:22;;;;;;;33.17;12.68;;;;;;;9.02;100.00;103566.03;5031173;28;20144;-76
2021/12/18 04:11:48;;;;;;;36.28;13.55;;;;;;;9.03;100.00;103557.44;5039396;28;20041;-76
2021/12/18 04:14:17;;;;;;;41.40;14.77;;;;;;;9.04;100.00;103561.81;5046212;28;20073;-75
2021/12/18 04:16:44;;;;;;;35.85;12.38;;;;;;;9.02;100.00;103564.09;5032894;28;20133;-75
2021/12/18 04:19:10;;;;;;;36.70;12.32;;;;;;;9.03;100.00;103564.91;5037017;28;20136;-79
2021/12/18 04:21:37;;;;;;;39.50;13.68;;;;;;;9.01;100.00;103565.22;5042764;28;20095;-75
2021/12/18 04:24:04;;;;;;;41.40;14.43;;;;;;;9.06;100.00;103573.38;5033822;28;20045;-74
2021/12/18 04:26:32;;;;;;;43.70;14.10;;;;;;;9.08;100.00;103570.28;5031411;28;20478;-74
2021/12/18 04:29:01;;;;;;;38.67;13.35;;;;;;;9.08;100.00;103568.31;5031072;28;20503;-75
2021/12/18 04:31:28;;;;;;;38.97;14.07;;;;;;;9.04;100.00;103561.81;5031995;28;20106;-75
2021/12/18 04:33:55;;;;;;;41.67;13.77;;;;;;;9.05;100.00;103568.97;5046744;28;20057;-74
2021/12/18 04:36:22;;;;;;;37.47;12.90;;;;;;;9.04;100.00;103572.88;5040578;28;20056;-74
2021/12/18 04:38:49;;;;;;;39.65;13.20;;;;;;;9.02;100.00;103575.16;5033203;28;20461;-74
2021/12/18 04:41:22;;;;;;;40.85;13.55;;;;;;;9.01;100.00;103572.69;5031865;28;20054;-74
2021/12/18 04:43:50;;;;;;;40.75;14.75;;;;;;;9.01;100.00;103573.50;5051402;28;20052;-75
2021/12/18 04:46:17;;;;;;;40.50;13.63;;;;;;;9.01;100.00;103575.47;5041062;28;20049;-74
2021/12/18 04:48:43;;;;;;;35.30;12.25;;;;;;;8.98;100.00;103574.13;5051185;28;20102;-74
2021/12/18 04:51:10;;;;;;;39.00;13.50;;;;;;;8.92;100.00;103569.91;5040299;28;20439;-75
2021/12/18 04:53:36;;;;;;;44.42;13.35;;;;;;;8.87;100.00;103570.03;5038348;28;20094;-75
2021/12/18 04:56:03;;;;;;;35.47;12.75;;;;;;;8.84;100.00;103573.41;5039139;28;20053;-75
2021/12/18 04:58:30;;;;;;;37.60;13.25;;;;;;;8.87;100.00;103578.31;5041087;28;20045;-76
2021/12/18 05:00:56;;;;;;;39.95;14.68;;;;;;;8.87;100.00;103572.78;5033422;28;20594;-76
2021/12/18 05:03:23;;;;;;;39.25;14.48;;;;;;;8.90;100.00;103574.91;5040598;28;20115;-75
2021/12/18 05:05:50;;;;;;;43.33;14.40;;;;;;;8.91;100.00;103573.78;5047073;28;20099;-76
2021/12/18 05:08:16;;;;;;;43.00;14.60;;;;;;;8.93;100.00;103578.97;5039207;28;20058;-75
2021/12/18 05:10:43;;;;;;;38.17;12.95;;;;;;;8.93;100.00;103573.47;5032866;28;20103;-77
2021/12/18 05:13:09;;;;;;;38.63;13.80;;;;;;;8.92;100.00;103569.91;5042499;28;20555;-75
2021/12/18 05:15:37;;;;;;;40.28;13.23;;;;;;;8.96;100.00;103575.59;5038351;28;20049;-76
2021/12/18 05:18:03;;;;;;;44.03;14.43;;;;;;;8.98;100.00;103571.38;5045930;28;20084;-75
2021/12/18 05:20:30;;;;;;;38.60;13.68;;;;;;;8.95;100.00;103572.03;5031906;28;20835;-75
2021/12/18 05:22:56;;;;;;;39.58;14.13;;;;;;;8.98;100.00;103571.38;5038342;28;20143;-75
2021/12/18 05:25:23;;;;;;;38.03;13.32;;;;;;;8.94;100.00;103567.63;5033942;28;20134;-75
2021/12/18 05:27:49;;;;;;;42.38;14.55;;;;;;;8.99;100.00;103581.31;5032268;28;20095;-75
2021/12/18 05:30:16;;;;;;;39.72;14.10;;;;;;;9.00;100.00;103577.41;5032757;28;20052;-76
2021/12/18 05:32:43;;;;;;;39.67;13.73;;;;;;;9.00;100.00;103579.34;5037112;28;20128;-76
2021/12/18 05:35:09;;;;;;;37.42;13.13;;;;;;;8.99;100.00;103572.19;5045650;28;20059;-75
2021/12/18 05:40:14;;;;;;;40.63;12.57;;;;;;;8.97;100.00;103580.78;5034855;28;20481;-77
2021/12/18 05:42:45;;;;;;;41.45;13.35;;;;;;;8.96;100.00;103583.88;5039684;28;20057;-75
2021/12/18 05:45:12;;;;;;;46.03;14.65;;;;;;;8.94;100.00;103575.91;5044769;28;20135;-77
2021/12/18 05:47:39;;;;;;;42.53;14.05;;;;;;;8.99;100.00;103589.59;5030906;28;20053;-75
2021/12/18 05:50:07;;;;;;;42.42;14.18;;;;;;;8.99;100.00;103577.72;5034387;28;20057;-77
2021/12/18 05:52:34;;;;;;;39.17;14.25;;;;;;;9.03;100.00;103582.28;5030599;28;20405;-75
2021/12/18 05:55:00;;;;;;;43.72;14.90;;;;;;;9.02;100.00;103586.19;5030360;28;20390;-74
2021/12/18 05:57:27;;;;;;;41.17;13.55;;;;;;;9.08;100.00;103589.63;5033629;28;20145;-75
2021/12/18 05:59:53;;;;;;;40.97;13.40;;;;;;;9.09;100.00;103580.19;5032303;28;20206;-75
2021/12/18 06:02:20;;;;;;;37.70;11.98;;;;;;;9.08;100.00;103581.34;5025760;28;20149;-75
2021/12/18 06:04:46;;;;;;;35.70;12.18;;;;;;;9.11;100.00;103587.03;5036001;28;20054;-75
2021/12/18 06:07:27;;;;;;;41.08;11.75;;;;;;;9.08;100.00;103579.38;5030537;28;20469;-75
2021/12/18 06:09:57;;;;;;;36.55;12.50;;;;;;;9.10;100.00;103579.06;5036764;28;20051;-75
2021/12/18 06:12:24;;;;;;;37.30;11.20;;;;;;;9.04;100.00;103570.09;5029463;28;20057;-75
2021/12/18 06:14:51;;;;;;;34.88;11.52;;;;;;;9.07;100.00;103577.75;5030893;28;20163;-74
2021/12/18 06:17:17;;;;;;;29.52;11.07;;;;;;;9.05;100.00;103573.69;5031630;28;20179;-76
2021/12/18 06:19:44;;;;;;;29.15;9.98;;;;;;;9.00;100.00;103566.34;5031738;28;20053;-74
2021/12/18 06:22:11;;;;;;;29.65;10.70;;;;;;;8.94;100.00;103569.59;5032344;28;20059;-75
2021/12/18 06:24:37;;;;;;;28.10;10.50;;;;;;;8.96;100.00;103576.41;5030784;28;20053;-76
2021/12/18 06:27:04;;;;;;;27.17;9.75;;;;;;;8.93;100.00;103574.28;5031456;28;20132;-76
2021/12/18 06:29:33;;;;;;;33.30;10.88;;;;;;;8.95;100.00;103571.22;5030852;28;20063;-75
2021/12/18 06:32:00;;;;;;;28.90;9.93;;;;;;;8.94;100.00;103578.66;5031373;28;20060;-77
2021/12/18 06:34:27;;;;;;;30.08;10.82;;;;;;;8.89;100.00;103565.00;5032633;28;20065;-75
2021/12/18 06:36:53;;;;;;;32.40;10.52;;;;;;;8.93;100.00;103579.81;5043872;28;20067;-76
2021/12/18 06:39:20;;;;;;;32.50;11.02;;;;;;;8.91;100.00;103579.28;5040646;28;20049;-77
2021/12/18 06:41:48;;;;;;;30.98;10.65;;;;;;;8.91;100.00;103590.34;5032006;28;20045;-76
2021/12/18 06:44:15;;;;;;;31.65;10.98;;;;;;;8.89;100.00;103580.75;5045000;28;20053;-75
2021/12/18 06:46:42;;;;;;;41.83;11.75;;;;;;;8.92;100.00;103580.13;5034476;28;20463;-76
2021/12/18 06:49:10;;;;;;;34.38;11.43;;;;;;;8.87;100.00;103575.53;5036059;28;20056;-76
2021/12/18 06:51:38;;;;;;;33.10;11.45;;;;;;;8.90;100.00;103571.31;5030453;28;20053;-76
2021/12/18 06:54:04;;;;;;;36.78;11.15;;;;;;;8.95;100.00;103573.97;5028686;28;20045;-75
2021/12/18 06:56:31;;;;;;;39.78;13.93;;;;;;;8.95;100.00;103572.03;5026736;28;20146;-79
2021/12/18 06:58:58;;;;;;;41.92;12.63;;;;;;;8.93;100.00;103570.69;5032835;28;20520;-76
2021/12/18 07:01:24;;;;;;;42.70;12.85;;;;;;;8.94;100.00;103577.88;5029744;28;20469;-76
2021/12/18 07:03:51;;;;;;;38.42;14.18;;;;;;;8.96;100.00;103572.81;5027321;28;20084;-76
2021/12/18 07:06:18;;;;;;;39.35;13.60;;;;;;;8.95;100.00;103572.03;5025265;28;20045;-76
2021/12/18 07:08:44;;;;;;;45.90;14.18;;;;;;;9.02;100.00;103579.84;5027810;28;20132;-78
2021/12/18 07:11:11;;;;;;;41.58;13.55;;;;;;;9.03;100.00;103571.25;5044557;28;20136;-77
2021/12/18 07:13:38;;;;;;;47.63;13.32;;;;;;;8.99;100.00;103569.44;5036229;28;20072;-76
2021/12/18 07:16:05;;;;;;;39.10;13.63;;;;;;;9.08;100.00;103581.34;5041655;28;20136;-77
2021/12/18 07:18:31;;;;;;;40.08;11.90;;;;;;;9.08;100.00;103578.59;5039195;28;20615;-78
2021/12/18 07:20:58;;;;;;;36.33;12.13;;;;;;;9.09;100.00;103577.44;5045203;28;20123;-76
2021/12/18 07:23:24;;;;;;;39.13;11.68;;;;;;;9.06;100.00;103573.38;5028136;28;20160;-76
2021/12/18 07:25:51;;;;;;;31.27;10.90;;;;;;;9.13;100.00;103579.25;5031104;28;20050;-75
2021/12/18 07:28:18;;;;;;;30.20;9.75;;;;;;;9.13;100.00;103575.66;5029817;28;20077;-75
2021/12/18 07:30:47;;;;;;;30.10;9.60;;;;;;;9.16;100.00;103581.38;5034462;28;20052;-75
2021/12/18 07:33:14;;;;;;;33.75;9.57;;;;;;;9.14;100.00;103583.63;5042700;28;20049;-76
2021/12/18 07:35:41;;;;;;;32.20;9.73;;;;;;;9.18;100.00;103586.59;5035616;28;20050;-79
2021/12/18 07:38:08;;;;;;;35.33;10.38;;;;;;;9.18;100.00;103590.16;5037113;28;20513;-76
2021/12/18 07:40:35;;;;;;;34.05;10.60;;;;;;;9.16;100.00;103584.16;5036755;28;20046;-76
2021/12/18 07:43:02;;;;;;;35.30;10.77;;;;;;;9.14;100.00;103586.41;5027198;28;20140;-78
2021/12/18 07:45:33;;;;;;;41.50;13.48;;;;;;;9.11;100.00;103589.78;5031045;28;20053;-75
2021/12/18 07:48:01;;;;;;;41.42;12.98;;;;;;;9.11;100.00;103586.25;5031767;28;20057;-77
2021/12/18 07:50:28;;;;;;;29.30;9.07;;;;;;;9.16;100.00;103591.59;5032589;28;20057;-75
2021/12/18 07:52:55;;;;;;;33.78;10.32;;;;;;;9.14;100.00;103578.09;5044110;28;20412;-74
2021/12/18 07:55:22;;;;;;;29.10;8.90;;;;;;;9.17;100.00;103584.94;5051111;28;20159;-75
2021/12/18 07:57:50;;;;;;;32.13;9.93;;;;;;;9.18;100.00;103590.16;5040265;28;20049;-73
2021/12/18 08:00:18;;;;;;;35.33;10.18;;;;;;;9.17;100.00;103591.28;5018891;28;20064;-76
2021/12/18 08:02:45;;;;;;;34.30;10.88;;;;;;;9.17;100.00;103588.53;5028613;28;20411;-75
2021/12/18 08:05:11;;;;;;;29.67;9.05;;;;;;;9.11;100.00;103589.78;5031569;28;20045;-74
2021/12/18 08:07:38;;;;;;;29.30;10.65;;;;;;;9.08;100.00;103587.66;5031551;28;20134;-72
2021/12/18 08:10:05;;;;;;;26.67;8.13;;;;;;;9.11;100.00;103594.53;5031425;28;20081;-73
2021/12/18 08:12:32;;;;;;;35.05;10.13;;;;;;;9.09;100.00;103586.56;5031208;28;20144;-69
2021/12/18 08:14:59;;;;;;;25.60;7.28;;;;;;;9.14;100.00;103591.91;5030138;28;20046;-69
2021/12/18 08:17:26;;;;;;;28.13;8.35;;;;;;;9.16;100.00;103588.84;5025108;28;21868;-73
2021/12/18 08:19:52;;;;;;;26.52;8.65;;;;;;;9.15;100.00;103590.78;5030662;28;20087;-74
2021/12/18 08:22:19;;;;;;;23.30;7.40;;;;;;;9.14;100.00;103599.38;5046049;28;20052;-74
2021/12/18 08:24:46;;;;;;;25.17;8.52;;;;;;;9.12;100.00;103594.22;5039168;28;20041;-75
2021/12/18 08:27:13;;;;;;;21.77;7.22;;;;;;;9.14;100.00;103593.84;5033767;28;20052;-74
2021/12/18 08:29:39;;;;;;;25.30;8.10;;;;;;;9.12;100.00;103582.34;5028353;28;20084;-74
2021/12/18 08:32:06;;;;;;;24.35;7.70;;;;;;;9.10;100.00;103582.66;5026454;28;20060;-74
2021/12/18 08:34:33;;;;;;;27.65;7.57;;;;;;;9.11;100.00;103586.25;5032713;28;20129;-74
2021/12/18 08:37:00;;;;;;;23.95;7.18;;;;;;;9.13;100.00;103587.53;5031180;28;20063;-73
2021/12/18 08:39:28;;;;;;;26.10;8.52;;;;;;;9.14;100.00;103596.63;5032356;28;20060;-74
2021/12/18 08:41:55;;;;;;;26.50;8.48;;;;;;;9.11;100.00;103587.03;5028725;28;20049;-74
2021/12/18 08:44:21;;;;;;;23.10;7.32;;;;;;;9.13;100.00;103593.06;5030251;28;20113;-73
2021/12/18 08:46:48;;;;;;;25.77;8.25;;;;;;;9.13;100.00;103595.00;5032696;28;20132;-74
2021/12/18 08:49:15;;;;;;;30.48;8.85;;;;;;;9.15;100.00;103590.00;5032976;28;20053;-75
2021/12/18 08:51:42;;;;;;;28.50;8.63;;;;;;;9.14;100.00;103589.16;5046189;28;20064;-70
2021/12/18 08:54:09;;;;;;;36.00;9.98;;;;;;;9.12;100.00;103583.16;5032932;28;20111;-75
2021/12/18 08:56:35;;;;;;;30.30;8.82;;;;;;;9.15;100.00;103590.00;5030638;28;20158;-75
2021/12/18 08:59:03;;;;;;;29.83;9.60;;;;;;;9.10;100.00;103598.41;5024924;28;20050;-76
2021/12/18 09:01:30;;;;;;;28.58;8.50;;;;;;;9.00;100.00;103593.16;5028526;28;20045;-74
2021/12/18 09:03:57;;;;;;;33.10;9.57;;;;;;;8.93;100.00;103590.84;5029317;28;20132;-75
2021/12/18 09:06:24;;;;;;;26.58;8.15;;;;;;;8.91;100.00;103582.06;5035516;28;20131;-73
2021/12/18 09:08:52;;;;;;;33.22;9.85;;;;;;;8.94;100.00;103589.72;5037814;28;20140;-73
2021/12/18 09:11:19;;;;;;;38.72;10.93;;;;;;;8.95;100.00;103596.88;5044955;28;20143;-73
2021/12/18 09:13:47;;;;;;;32.22;9.88;;;;;;;8.97;100.00;103591.84;5029747;28;20132;-74
2021/12/18 09:16:17;;;;;;;30.50;8.40;;;;;;;9.03;100.00;103587.81;5025545;28;20061;-75
2021/12/18 09:18:44;;;;;;;31.63;9.80;;;;;;;9.02;100.00;103591.72;5034843;28;20118;-74
2021/12/18 09:21:11;;;;;;;34.00;9.40;;;;;;;9.05;100.00;103591.06;5029676;28;20753;-76
2021/12/18 09:23:37;;;;;;;31.63;9.80;;;;;;;9.07;100.00;103586.03;5019403;28;20053;-74
2021/12/18 09:26:04;;;;;;;31.65;10.65;;;;;;;9.04;100.00;103583.13;5020633;28;20144;-73
2021/12/18 09:28:30;;;;;;;25.98;7.70;;;;;;;9.11;100.00;103595.31;5028067;28;20049;-74
2021/12/18 09:30:57;;;;;;;22.42;7.05;;;;;;;9.12;100.00;103594.22;5048897;28;20140;-75
2021/12/18 09:33:23;;;;;;;26.33;8.45;;;;;;;9.12;100.00;103588.69;5024240;28;20103;-74
2021/12/18 09:35:50;;;;;;;26.08;8.80;;;;;;;9.16;100.00;103589.66;5049545;28;20148;-74
2021/12/18 09:38:17;;;;;;;25.20;8.05;;;;;;;9.17;100.00;103587.69;5026488;28;20169;-74
2021/12/18 09:40:43;;;;;;;22.88;6.82;;;;;;;9.20;100.00;103592.59;5025762;28;20391;-74
2021/12/18 09:43:10;;;;;;;23.30;7.95;;;;;;;9.21;100.00;103589.50;5036204;28;20052;-74
2021/12/18 09:45:37;;;;;;;26.42;10.25;;;;;;;9.21;100.00;103583.97;5039094;28;20102;-75
2021/12/18 09:48:06;;;;;;;21.75;8.00;;;;;;;9.21;100.00;103585.97;5026515;28;20893;-75
2021/12/18 09:50:36;;;;;;;21.73;7.60;;;;;;;9.21;100.00;103588.72;5012750;28;20077;-73
2021/12/18 09:53:05;;;;;;;18.42;6.63;;;;;;;9.19;100.00;103577.97;5019265;28;20058;-74
2021/12/18 09:55:32;;;;;;;21.42;8.80;;;;;;;9.21;100.00;103580.44;5020319;28;20128;-74
2021/12/18 09:57:58;;;;;;;33.13;15.32;;;;;;;9.22;100.00;103579.28;5020646;28;20136;-73
2021/12/18 10:00:25;;;;;;;22.13;7.13;;;;;;;9.23;100.00;103586.44;5019910;28;20136;-74
2021/12/18 10:02:53;;;;;;;154.90;74.32;;;;;;;9.21;100.00;103578.47;5020126;28;20059;-74
2021/12/18 10:05:34;;;;;;;20.30;7.82;;;;;;;9.22;100.00;103580.09;5027325;28;20050;-76
2021/12/18 10:08:18;;;;;;;28.27;12.90;;;;;;;9.22;100.00;103576.53;5031144;28;20580;-74
2021/12/18 10:11:03;;;;;;;24.17;10.13;;;;;;;9.25;100.00;103573.91;5022545;28;20128;-74
2021/12/18 10:13:31;;;;;;;18.85;6.15;;;;;;;9.26;100.00;103572.81;5026884;28;20378;-75
2021/12/18 10:16:09;;;;;;;22.58;6.93;;;;;;;9.24;100.00;103566.78;5031202;28;20072;-77
2021/12/18 10:18:37;;;;;;;20.45;6.28;;;;;;;9.31;100.00;103567.13;5030342;28;20498;-75
2021/12/18 10:21:19;;;;;;;15.70;6.05;;;;;;;9.28;100.00;103562.22;5047116;28;20049;-75
2021/12/18 10:23:47;;;;;;;19.40;5.95;;;;;;;9.31;100.00;103561.59;5031426;28;20050;-75
2021/12/18 10:26:29;;;;;;;18.48;6.13;;;;;;;9.32;100.00;103559.66;5014526;28;20041;-74
2021/12/18 10:28:56;;;;;;;15.25;5.45;;;;;;;9.30;100.00;103559.16;5015333;28;20073;-74
2021/12/18 10:31:44;;;;;;;15.25;5.32;;;;;;;9.30;100.00;103556.38;5031551;28;20219;-75
2021/12/18 10:34:17;;;;;;;18.80;5.25;;;;;;;9.34;100.00;103557.38;5019270;28;20115;-74
2021/12/18 10:37:18;;;;;;;17.25;7.28;;;;;;;9.34;100.00;103555.44;5022698;28;20057;-72
2021/12/18 10:39:50;;;;;;;22.95;9.40;;;;;;;9.31;100.00;103553.31;5023554;28;20073;-74
2021/12/18 10:42:18;;;;;;;15.93;5.95;;;;;;;9.31;100.00;103553.31;5025028;28;20091;-73
2021/12/18 10:45:00;;;;;;;13.07;4.43;;;;;;;9.31;100.00;103552.47;5033592;28;20081;-73
2021/12/18 10:47:45;;;;;;;17.17;6.40;;;;;;;9.32;100.00;103545.84;5021109;28;20049;-72
2021/12/18 10:50:38;;;;;;;15.77;5.03;;;;;;;9.33;100.00;103548.28;5027514;28;20081;-73
2021/12/18 10:53:11;;;;;;;16.25;5.03;;;;;;;9.33;100.00;103542.75;5026017;28;20585;-74
2021/12/18 10:55:42;;;;;;;18.30;4.82;;;;;;;9.33;100.00;103551.03;5032984;28;20519;-74
2021/12/18 10:58:12;;;;;;;17.20;5.57;;;;;;;9.37;100.00;103551.19;5030714;28;20049;-74
2021/12/18 11:00:45;;;;;;;16.02;4.93;;;;;;;9.35;100.00;103542.44;5029329;28;20136;-74
2021/12/18 11:03:17;;;;;;;19.45;5.82;;;;;;;9.38;100.00;103547.31;5020746;28;20136;-74
2021/12/18 11:06:05;;;;;;;16.10;5.38;;;;;;;9.35;100.00;103534.94;5018588;28;20140;-72
2021/12/18 11:08:34;;;;;;;13.05;4.40;;;;;;;9.41;100.00;103539.19;5026654;28;20061;-73
2021/12/18 11:13:38;;;;;;;12.48;4.47;;;;;;;9.40;100.00;103543.09;5035191;28;20141;-73
2021/12/18 11:13:52;;;;;;;14.73;4.43;;;;;;;9.38;100.00;103530.75;5047358;28;20402;-73
2021/12/18 11:16:20;;;;;;;15.38;5.20;;;;;;;9.32;100.00;103521.75;5023027;28;20076;-74
2021/12/18 11:18:46;;;;;;;15.45;4.63;;;;;;;9.34;100.00;103521.44;5026347;28;20496;-75
2021/12/18 11:21:14;;;;;;;15.07;5.00;;;;;;;9.36;100.00;103520.00;5031892;28;20045;-73
2021/12/18 11:23:53;;;;;;;16.85;5.30;;;;;;;9.40;100.00;103523.75;5023208;28;20069;-74
2021/12/18 11:26:23;;;;;;;14.82;4.63;;;;;;;9.42;100.00;103528.97;5025268;28;20045;-74
2021/12/18 11:28:51;;;;;;;14.90;4.82;;;;;;;9.42;100.00;103529.75;5032124;28;20452;-75
2021/12/18 11:31:18;;;;;;;15.65;5.30;;;;;;;9.43;100.00;103519.53;5019651;28;20153;-74
2021/12/18 11:33:45;;;;;;;16.30;5.47;;;;;;;9.44;100.00;103516.44;5030547;28;20053;-75
2021/12/18 11:36:12;;;;;;;19.17;5.35;;;;;;;9.45;100.00;103511.72;5033112;28;20133;-73
2021/12/18 11:38:41;;;;;;;14.35;5.50;;;;;;;9.39;100.00;103511.03;5032551;28;20394;-74
2021/12/18 11:41:15;;;;;;;13.00;4.47;;;;;;;9.45;100.00;103509.75;5029062;28;20065;-73
2021/12/18 11:43:45;;;;;;;13.13;4.20;;;;;;;9.44;100.00;103510.91;5048522;28;20053;-75
2021/12/18 11:46:29;;;;;;;15.77;4.13;;;;;;;9.47;100.00;103499.22;5041337;28;20053;-74
2021/12/18 11:48:57;;;;;;;12.85;4.13;;;;;;;9.49;100.00;103496.91;5032626;28;20140;-73
2021/12/18 11:51:24;;;;;;;11.80;3.90;;;;;;;9.48;100.00;103489.78;5032578;28;20148;-72
2021/12/18 11:53:51;;;;;;;14.02;5.35;;;;;;;9.46;100.00;103496.75;5031909;28;20499;-73
2021/12/18 11:56:18;;;;;;;16.50;5.25;;;;;;;9.44;100.00;103491.56;5029790;28;20053;-72
2021/12/18 11:58:47;;;;;;;12.55;4.75;;;;;;;9.45;100.00;103479.34;5039939;28;20041;-75
2021/12/18 12:01:25;;;;;;;13.05;4.07;;;;;;;9.46;100.00;103488.47;5036177;28;20042;-73
2021/12/18 12:03:51;;;;;;;15.40;5.65;;;;;;;9.47;100.00;103485.38;5038103;28;20065;-72
2021/12/18 12:06:30;;;;;;;16.35;6.50;;;;;;;9.47;100.00;103485.38;5031480;28;20136;-74